createdAt,value
2023-05-19T00:02:26.058Z,98654.00
2023-05-19T00:05:02.069Z,98657.00
2023-05-19T00:07:39.686Z,98656.00
2023-05-19T00:10:21.199Z,98662.00
2023-05-19T00:12:56.428Z,98650.00
2023-05-19T00:15:34.045Z,98646.00
2023-05-19T00:18:08.990Z,98646.00
2023-05-19T00:20:49.135Z,98643.00
2023-05-19T00:23:23.394Z,98637.00
2023-05-19T00:28:47.228Z,98637.00
2023-05-19T00:31:23.723Z,98643.00
2023-05-19T00:33:58.184Z,98641.00
2023-05-19T00:36:32.396Z,98643.00
2023-05-19T00:39:08.918Z,98642.00
2023-05-19T00:41:44.640Z,98638.00
2023-05-19T00:44:18.919Z,98633.00
2023-05-19T00:46:59.560Z,98640.00
2023-05-19T00:49:37.028Z,98631.00
2023-05-19T00:52:13.823Z,98641.00
2023-05-19T00:54:48.262Z,98638.00
2023-05-19T00:57:24.076Z,98635.00
2023-05-19T00:59:58.493Z,98629.00
2023-05-19T01:02:32.980Z,98633.00
2023-05-19T01:05:08.711Z,98628.00
2023-05-19T01:07:44.288Z,98626.00
2023-05-19T01:10:18.692Z,98630.00
2023-05-19T01:13:06.871Z,98623.00
2023-05-19T01:16:07.534Z,98623.00
2023-05-19T01:18:48.970Z,98614.00
2023-05-19T01:22:16.473Z,98624.00
2023-05-19T01:25:26.172Z,98621.00
2023-05-19T01:28:47.424Z,98624.00
2023-05-19T01:31:33.463Z,98626.00
2023-05-19T01:34:09.062Z,98625.00
2023-05-19T01:36:44.894Z,98624.00
2023-05-19T01:39:21.134Z,98633.00
2023-05-19T01:41:56.235Z,98633.00
2023-05-19T01:44:31.108Z,98634.00
2023-05-19T01:47:07.557Z,98638.00
2023-05-19T01:49:43.856Z,98629.00
2023-05-19T01:52:21.288Z,98631.00
2023-05-19T01:54:55.520Z,98627.00
2023-05-19T01:57:39.873Z,98633.00
2023-05-19T02:00:24.196Z,98623.00
2023-05-19T02:03:13.034Z,98622.00
2023-05-19T02:05:57.823Z,98613.00
2023-05-19T02:08:37.780Z,98617.00
2023-05-19T02:11:21.713Z,98609.00
2023-05-19T02:14:04.946Z,98613.00
2023-05-19T02:16:40.609Z,98612.00
2023-05-19T02:19:31.149Z,98611.00
2023-05-19T02:22:13.424Z,98616.00
2023-05-19T02:24:48.079Z,98624.00
2023-05-19T02:27:22.333Z,98620.00
2023-05-19T02:29:59.113Z,98614.00
2023-05-19T02:32:33.660Z,98616.00
2023-05-19T02:35:10.445Z,98615.00
2023-05-19T02:37:44.702Z,98608.00
2023-05-19T02:40:19.414Z,98604.00
2023-05-19T02:42:54.025Z,98606.00
2023-05-19T02:45:29.298Z,98597.00
2023-05-19T02:48:03.670Z,98605.00
2023-05-19T02:50:43.052Z,98601.00
2023-05-19T02:53:19.473Z,98602.00
2023-05-19T02:55:53.856Z,98605.00
2023-05-19T02:58:31.888Z,98597.00
2023-05-19T03:01:08.527Z,98600.00
2023-05-19T03:03:43.021Z,98597.00
2023-05-19T03:06:23.451Z,98598.00
2023-05-19T03:08:59.474Z,98599.00
2023-05-19T03:11:33.645Z,98599.00
2023-05-19T03:14:12.529Z,98596.00
2023-05-19T03:16:55.468Z,98594.00
2023-05-19T03:19:35.034Z,98602.00
2023-05-19T03:22:11.057Z,98606.00
2023-05-19T03:24:45.381Z,98609.00
2023-05-19T03:27:19.514Z,98605.00
2023-05-19T03:29:56.764Z,98602.00
2023-05-19T03:32:32.434Z,98606.00
2023-05-19T03:35:07.512Z,98608.00
2023-05-19T03:37:48.983Z,98605.00
2023-05-19T03:40:23.277Z,98600.00
2023-05-19T03:42:57.643Z,98599.00
2023-05-19T03:45:34.506Z,98606.00
2023-05-19T03:48:12.794Z,98602.00
2023-05-19T03:50:48.612Z,98597.00
2023-05-19T03:53:27.444Z,98600.00
2023-05-19T03:56:01.769Z,98594.00
2023-05-19T03:58:37.067Z,98597.00
2023-05-19T04:01:14.600Z,98598.00
2023-05-19T04:03:48.713Z,98601.00
2023-05-19T04:06:23.667Z,98599.00
2023-05-19T04:09:06.986Z,98604.00
2023-05-19T04:11:43.531Z,98605.00
2023-05-19T04:14:17.874Z,98605.00
2023-05-19T04:16:58.324Z,98608.00
2023-05-19T04:19:32.652Z,98611.00
2023-05-19T04:22:07.016Z,98605.00
2023-05-19T04:24:46.196Z,98605.00
2023-05-19T04:27:22.044Z,98611.00
2023-05-19T04:30:01.889Z,98608.00
2023-05-19T04:32:39.649Z,98612.00
2023-05-19T04:35:15.516Z,98609.00
2023-05-19T04:37:54.419Z,98616.00
2023-05-19T04:40:37.428Z,98606.00
2023-05-19T04:43:11.701Z,98607.00
2023-05-19T04:45:46.771Z,98610.00
2023-05-19T04:48:21.777Z,98608.00
2023-05-19T04:50:58.819Z,98616.00
2023-05-19T04:53:39.275Z,98619.00
2023-05-19T04:56:15.571Z,98626.00
2023-05-19T04:58:53.276Z,98622.00
2023-05-19T05:01:28.048Z,98624.00
2023-05-19T05:04:05.957Z,98620.00
2023-05-19T05:06:42.428Z,98617.00
2023-05-19T05:09:16.999Z,98623.00
2023-05-19T05:11:55.875Z,98627.00
2023-05-19T05:14:30.771Z,98625.00
2023-05-19T05:17:06.165Z,98635.00
2023-05-19T05:19:41.403Z,98623.00
2023-05-19T05:22:22.247Z,98619.00
2023-05-19T05:24:57.476Z,98624.00
2023-05-19T05:27:35.338Z,98622.00
2023-05-19T05:30:13.484Z,98622.00
2023-05-19T05:32:47.820Z,98622.00
2023-05-19T05:35:27.361Z,98614.00
2023-05-19T05:38:02.914Z,98623.00
2023-05-19T05:40:37.420Z,98607.00
2023-05-19T05:43:15.129Z,98619.00
2023-05-19T05:45:51.827Z,98616.00
2023-05-19T05:48:46.253Z,98612.00
2023-05-19T05:51:23.791Z,98624.00
2023-05-19T05:54:00.869Z,98631.00
2023-05-19T05:56:37.540Z,98628.00
2023-05-19T05:59:13.362Z,98628.00
2023-05-19T06:01:49.404Z,98624.00
2023-05-19T06:04:26.021Z,98631.00
2023-05-19T06:07:07.896Z,98633.00
2023-05-19T06:09:42.229Z,98631.00
2023-05-19T06:12:16.727Z,98627.00
2023-05-19T06:14:52.597Z,98629.00
2023-05-19T06:17:29.172Z,98628.00
2023-05-19T06:20:04.188Z,98630.00
2023-05-19T06:22:38.505Z,98635.00
2023-05-19T06:25:34.341Z,98636.00
2023-05-19T06:28:16.073Z,98625.00
2023-05-19T06:30:51.944Z,98629.00
2023-05-19T06:33:31.727Z,98631.00
2023-05-19T06:36:21.077Z,98623.00
2023-05-19T06:39:00.637Z,98625.00
2023-05-19T06:41:36.316Z,98629.00
2023-05-19T06:44:10.556Z,98634.00
2023-05-19T06:46:49.219Z,98626.00
2023-05-19T06:49:24.041Z,98636.00
2023-05-19T06:51:58.469Z,98635.00
2023-05-19T06:54:35.376Z,98629.00
2023-05-19T06:57:09.832Z,98632.00
2023-05-19T06:59:47.043Z,98632.00
2023-05-19T07:02:22.931Z,98643.00
2023-05-19T07:04:57.537Z,98640.00
2023-05-19T07:07:37.029Z,98638.00
2023-05-19T07:10:12.374Z,98629.00
2023-05-19T07:12:49.040Z,98641.00
2023-05-19T07:15:30.966Z,98634.00
2023-05-19T07:18:08.855Z,98638.00
2023-05-19T07:20:46.291Z,98632.00
2023-05-19T07:23:20.722Z,98621.00
2023-05-19T07:25:58.197Z,98630.00
2023-05-19T07:28:43.530Z,98628.00
2023-05-19T07:31:20.008Z,98634.00
2023-05-19T07:33:58.681Z,98623.00
2023-05-19T07:36:35.397Z,98618.00
2023-05-19T07:39:09.840Z,98615.00
2023-05-19T07:41:52.614Z,98625.00
2023-05-19T07:44:27.247Z,98626.00
2023-05-19T07:47:02.081Z,98626.00
2023-05-19T07:49:37.699Z,98623.00
2023-05-19T07:52:12.055Z,98633.00
2023-05-19T07:54:46.945Z,98617.00
2023-05-19T07:57:21.345Z,98629.00
2023-05-19T07:59:55.750Z,98620.00
2023-05-19T08:02:32.487Z,98626.00
2023-05-19T08:05:10.552Z,98626.00
2023-05-19T08:07:44.955Z,98624.00
2023-05-19T08:13:10.636Z,98623.00
2023-05-19T08:15:45.022Z,98622.00
2023-05-19T08:18:22.139Z,98630.00
2023-05-19T08:21:02.633Z,98610.00
2023-05-19T08:23:39.856Z,98610.00
2023-05-19T08:26:14.133Z,98614.00
2023-05-19T08:28:48.294Z,98612.00
2023-05-19T08:31:26.252Z,98611.00
2023-05-19T08:34:00.665Z,98610.00
2023-05-19T08:36:36.217Z,98604.00
2023-05-19T08:39:10.900Z,98597.00
2023-05-19T08:41:45.077Z,98598.00
2023-05-19T08:44:19.576Z,98604.00
2023-05-19T08:46:56.274Z,98603.00
2023-05-19T08:49:36.790Z,98597.00
2023-05-19T08:52:34.408Z,98599.00
2023-05-19T08:55:28.433Z,98609.00
2023-05-19T08:58:08.718Z,98600.00
2023-05-19T09:00:43.652Z,98591.00
2023-05-19T09:03:24.072Z,98604.00
2023-05-19T09:05:58.601Z,98591.00
2023-05-19T09:08:34.256Z,98597.00
2023-05-19T09:11:10.720Z,98588.00
2023-05-19T09:13:50.804Z,98592.00
2023-05-19T09:16:29.952Z,98588.00
2023-05-19T09:19:17.591Z,98598.00
2023-05-19T09:22:01.324Z,98594.00
2023-05-19T09:24:42.877Z,98602.00
2023-05-19T09:27:28.284Z,98595.00
2023-05-19T09:30:13.423Z,98592.00
2023-05-19T09:32:50.204Z,98595.00
2023-05-19T09:35:25.125Z,98584.00
2023-05-19T09:37:59.552Z,98588.00
2023-05-19T09:40:36.954Z,98591.00
2023-05-19T09:43:11.702Z,98586.00
2023-05-19T09:45:46.207Z,98587.00
2023-05-19T09:48:20.713Z,98586.00
2023-05-19T09:50:56.711Z,98584.00
2023-05-19T09:53:32.537Z,98577.00
2023-05-19T09:56:12.413Z,98576.00
2023-05-19T09:58:47.648Z,98581.00
2023-05-19T10:01:23.184Z,98576.00
2023-05-19T10:04:03.659Z,98585.00
2023-05-19T10:06:38.317Z,98576.00
2023-05-19T10:09:12.876Z,98577.00
2023-05-19T10:11:48.657Z,98581.00
2023-05-19T10:14:25.314Z,98578.00
2023-05-19T10:17:11.414Z,98594.00
2023-05-19T10:19:46.367Z,98586.00
2023-05-19T10:22:20.908Z,98592.00
2023-05-19T10:24:56.022Z,98590.00
2023-05-19T10:27:33.113Z,98581.00
2023-05-19T10:30:14.325Z,98577.00
2023-05-19T10:32:54.846Z,98585.00
2023-05-19T10:35:57.096Z,98592.00
2023-05-19T10:38:48.287Z,98581.00
2023-05-19T10:41:30.503Z,98585.00
2023-05-19T10:44:29.801Z,98584.00
2023-05-19T10:47:04.369Z,98591.00
2023-05-19T10:49:38.907Z,98585.00
2023-05-19T10:52:28.701Z,98588.00
2023-05-19T10:55:05.106Z,98581.00
2023-05-19T10:57:39.265Z,98573.00
2023-05-19T11:03:17.787Z,98586.00
2023-05-19T11:05:59.494Z,98588.00
2023-05-19T11:08:34.857Z,98573.00
2023-05-19T11:11:18.184Z,98576.00
2023-05-19T11:14:02.398Z,98572.00
2023-05-19T11:16:41.008Z,98582.00
2023-05-19T11:19:24.282Z,98570.00
2023-05-19T11:22:08.656Z,98577.00
2023-05-19T11:24:51.986Z,98576.00
2023-05-19T11:27:32.116Z,98580.00
2023-05-19T11:30:20.200Z,98576.00
2023-05-19T11:32:56.298Z,98579.00
2023-05-19T11:35:41.229Z,98575.00
2023-05-19T11:38:23.693Z,98582.00
2023-05-19T11:40:58.689Z,98585.00
2023-05-19T11:43:33.106Z,98593.00
2023-05-19T11:46:07.578Z,98589.00
2023-05-19T11:48:44.103Z,98594.00
2023-05-19T11:51:24.382Z,98579.00
2023-05-19T11:53:58.674Z,98575.00
2023-05-19T11:56:41.927Z,98579.00
2023-05-19T11:59:17.827Z,98593.00
2023-05-19T12:01:52.136Z,98577.00
2023-05-19T12:04:26.420Z,98575.00
2023-05-19T12:07:01.911Z,98578.00
2023-05-19T12:09:37.050Z,98572.00
2023-05-19T12:12:13.323Z,98578.00
2023-05-19T12:14:49.539Z,98576.00
2023-05-19T12:17:26.828Z,98569.00
2023-05-19T12:20:04.941Z,98574.00
2023-05-19T12:22:47.800Z,98585.00
2023-05-19T12:25:26.451Z,98575.00
2023-05-19T12:28:06.841Z,98577.00
2023-05-19T12:30:41.515Z,98575.00
2023-05-19T12:33:20.123Z,98574.00
2023-05-19T12:35:57.461Z,98577.00
2023-05-19T12:38:37.417Z,98583.00
2023-05-19T12:41:13.109Z,98587.00
2023-05-19T12:43:47.283Z,98588.00
2023-05-19T12:46:24.636Z,98591.00
2023-05-19T12:49:01.561Z,98581.00
2023-05-19T12:51:35.996Z,98583.00
2023-05-19T12:54:12.039Z,98587.00
2023-05-19T12:56:56.853Z,98578.00
2023-05-19T12:59:38.755Z,98579.00
2023-05-19T13:02:13.498Z,98589.00
2023-05-19T13:04:48.562Z,98578.00
2023-05-19T13:07:22.986Z,98567.00
2023-05-19T13:09:58.685Z,98578.00
2023-05-19T13:12:35.235Z,98573.00
2023-05-19T13:15:14.882Z,98572.00
2023-05-19T13:17:49.137Z,98568.00
2023-05-19T13:20:24.682Z,98574.00
2023-05-19T13:23:00.876Z,98567.00
2023-05-19T13:25:36.824Z,98571.00
2023-05-19T13:28:11.986Z,98573.00
2023-05-19T13:30:47.282Z,98578.00
2023-05-19T13:33:23.993Z,98562.00
2023-05-19T13:35:58.669Z,98566.00
2023-05-19T13:38:35.249Z,98557.00
2023-05-19T13:41:15.937Z,98564.00
2023-05-19T13:43:50.470Z,98568.00
2023-05-19T13:46:45.662Z,98577.00
2023-05-19T13:49:24.054Z,98562.00
2023-05-19T13:52:08.981Z,98564.00
2023-05-19T13:54:43.322Z,98559.00
2023-05-19T13:57:21.214Z,98555.00
2023-05-19T14:00:02.822Z,98551.00
2023-05-19T14:02:42.326Z,98547.00
2023-05-19T14:05:18.903Z,98545.00
2023-05-19T14:07:53.193Z,98539.00
2023-05-19T14:10:30.206Z,98543.00
2023-05-19T14:15:50.050Z,98538.00
2023-05-19T14:18:24.367Z,98540.00
2023-05-19T14:21:01.073Z,98536.00
2023-05-19T14:23:40.683Z,98525.00
2023-05-19T14:26:15.032Z,98536.00
2023-05-19T14:28:51.533Z,98540.00
2023-05-19T14:31:36.380Z,98531.00
2023-05-19T14:34:13.099Z,98541.00
2023-05-19T14:36:49.466Z,98545.00
2023-05-19T14:39:26.848Z,98542.00
2023-05-19T14:42:01.168Z,98539.00
2023-05-19T14:44:37.552Z,98536.00
2023-05-19T14:47:13.264Z,98539.00
2023-05-19T14:49:48.362Z,98545.00
2023-05-19T14:52:26.362Z,98541.00
2023-05-19T14:55:21.926Z,98543.00
2023-05-19T14:57:56.278Z,98545.00
2023-05-19T15:00:32.516Z,98538.00
2023-05-19T15:03:09.343Z,98545.00
2023-05-19T15:05:43.748Z,98549.00
2023-05-19T15:08:20.362Z,98539.00
2023-05-19T15:10:54.460Z,98527.00
2023-05-19T15:13:31.080Z,98531.00
2023-05-19T15:18:57.336Z,98527.00
2023-05-19T15:21:33.357Z,98516.00
2023-05-19T15:24:12.359Z,98522.00
2023-05-19T15:26:54.466Z,98519.00
2023-05-19T15:29:43.674Z,98518.00
2023-05-19T15:32:19.246Z,98510.00
2023-05-19T15:34:55.833Z,98510.00
2023-05-19T15:37:30.310Z,98513.00
2023-05-19T15:40:04.857Z,98511.00
2023-05-19T15:42:39.182Z,98504.00
2023-05-19T15:45:18.936Z,98492.00
2023-05-19T15:47:54.491Z,98490.00
2023-05-19T15:50:31.100Z,98490.00
2023-05-19T15:53:06.823Z,98497.00
2023-05-19T15:55:43.421Z,98488.00
2023-05-19T15:58:19.979Z,98484.00
2023-05-19T16:00:57.169Z,98477.00
2023-05-19T16:03:33.422Z,98480.00
2023-05-19T16:06:07.876Z,98483.00
2023-05-19T16:08:47.651Z,98485.00
2023-05-19T16:11:22.410Z,98482.00
2023-05-19T16:13:59.280Z,98486.00
2023-05-19T16:16:36.295Z,98477.00
2023-05-19T16:19:12.134Z,98477.00
2023-05-19T16:21:46.351Z,98472.00
2023-05-19T16:24:23.048Z,98471.00
2023-05-19T16:26:57.394Z,98470.00
2023-05-19T16:29:34.131Z,98462.00
2023-05-19T16:32:11.368Z,98464.00
2023-05-19T16:34:47.058Z,98460.00
2023-05-19T16:37:24.486Z,98458.00
2023-05-19T16:39:58.779Z,98461.00
2023-05-19T16:42:33.147Z,98458.00
2023-05-19T16:45:11.338Z,98450.00
2023-05-19T16:47:45.670Z,98451.00
2023-05-19T16:50:24.043Z,98453.00
2023-05-19T16:53:01.336Z,98449.00
2023-05-19T16:55:35.996Z,98457.00
2023-05-19T16:58:12.301Z,98455.00
2023-05-19T17:00:46.643Z,98454.00
2023-05-19T17:03:21.007Z,98457.00
2023-05-19T17:06:01.386Z,98444.00
2023-05-19T17:08:35.669Z,98447.00
2023-05-19T17:11:10.088Z,98441.00
2023-05-19T17:13:46.428Z,98435.00
2023-05-19T17:16:23.506Z,98438.00
2023-05-19T17:19:00.265Z,98439.00
2023-05-19T17:21:35.910Z,98436.00
2023-05-19T17:24:11.830Z,98443.00
2023-05-19T17:26:46.298Z,98437.00
2023-05-19T17:29:22.596Z,98436.00
2023-05-19T17:31:56.921Z,98433.00
2023-05-19T17:34:31.156Z,98432.00
2023-05-19T17:37:08.968Z,98428.00
2023-05-19T17:39:46.306Z,98433.00
2023-05-19T17:42:22.194Z,98432.00
2023-05-19T17:44:58.110Z,98419.00
2023-05-19T17:47:35.625Z,98420.00
2023-05-19T17:50:17.419Z,98421.00
2023-05-19T17:52:56.217Z,98423.00
2023-05-19T17:55:36.419Z,98420.00
2023-05-19T17:58:11.303Z,98423.00
2023-05-19T18:00:45.910Z,98417.00
2023-05-19T18:03:24.259Z,98409.00
2023-05-19T18:05:59.323Z,98411.00
2023-05-19T18:08:38.816Z,98420.00
2023-05-19T18:11:15.981Z,98410.00
2023-05-19T18:13:52.910Z,98419.00
2023-05-19T18:16:27.433Z,98415.00
2023-05-19T18:19:01.814Z,98419.00
2023-05-19T18:21:36.028Z,98413.00
2023-05-19T18:24:11.682Z,98413.00
2023-05-19T18:26:46.891Z,98410.00
2023-05-19T18:29:24.274Z,98416.00
2023-05-19T18:31:58.577Z,98401.00
2023-05-19T18:34:35.168Z,98403.00
2023-05-19T18:37:11.332Z,98402.00
2023-05-19T18:39:46.888Z,98398.00
2023-05-19T18:42:24.227Z,98403.00
2023-05-19T18:45:06.269Z,98399.00
2023-05-19T18:47:43.037Z,98404.00
2023-05-19T18:50:17.302Z,98401.00
2023-05-19T18:52:56.503Z,98400.00
2023-05-19T18:55:32.471Z,98404.00
2023-05-19T18:58:10.205Z,98412.00
2023-05-19T19:00:44.604Z,98405.00
2023-05-19T19:03:19.258Z,98397.00
2023-05-19T19:05:57.847Z,98407.00
2023-05-19T19:08:34.611Z,98400.00
2023-05-19T19:11:11.313Z,98414.00
2023-05-19T19:13:51.230Z,98418.00
2023-05-19T19:16:25.773Z,98416.00
2023-05-19T19:19:03.430Z,98420.00
2023-05-19T19:21:40.763Z,98420.00
2023-05-19T19:24:17.172Z,98422.00
2023-05-19T19:26:59.541Z,98427.00
2023-05-19T19:29:37.882Z,98422.00
2023-05-19T19:32:13.853Z,98421.00
2023-05-19T19:34:48.379Z,98419.00
2023-05-19T19:37:23.928Z,98417.00
2023-05-19T19:40:00.828Z,98411.00
2023-05-19T19:42:38.705Z,98419.00
2023-05-19T19:45:16.079Z,98413.00
2023-05-19T19:47:53.057Z,98413.00
2023-05-19T19:50:28.112Z,98409.00
2023-05-19T19:53:03.310Z,98422.00
2023-05-19T19:55:40.508Z,98418.00
2023-05-19T19:58:18.745Z,98419.00
2023-05-19T20:01:03.144Z,98417.00
2023-05-19T20:03:41.140Z,98417.00
2023-05-19T20:06:15.875Z,98421.00
2023-05-19T20:08:52.664Z,98426.00
2023-05-19T20:11:27.162Z,98423.00
2023-05-19T20:14:05.606Z,98422.00
2023-05-19T20:16:41.171Z,98427.00
2023-05-19T20:19:18.513Z,98420.00
2023-05-19T20:21:55.645Z,98406.00
2023-05-19T20:24:32.459Z,98417.00
2023-05-19T20:27:07.798Z,98415.00
2023-05-19T20:29:47.198Z,98416.00
2023-05-19T20:32:24.287Z,98416.00
2023-05-19T20:35:00.166Z,98410.00
2023-05-19T20:37:38.326Z,98409.00
2023-05-19T20:40:15.920Z,98410.00
2023-05-19T20:42:50.216Z,98405.00
2023-05-19T20:45:28.249Z,98404.00
2023-05-19T20:48:04.252Z,98402.00
2023-05-19T20:50:41.169Z,98401.00
2023-05-19T20:53:15.904Z,98404.00
2023-05-19T20:55:50.288Z,98399.00
2023-05-19T20:58:26.934Z,98406.00
2023-05-19T21:01:11.434Z,98405.00
2023-05-19T21:03:47.978Z,98405.00
2023-05-19T21:06:24.318Z,98405.00
2023-05-19T21:08:58.686Z,98402.00
2023-05-19T21:11:42.037Z,98404.00
2023-05-19T21:14:16.312Z,98391.00
2023-05-19T21:16:54.417Z,98387.00
2023-05-19T21:19:28.912Z,98388.00
2023-05-19T21:22:06.863Z,98386.00
2023-05-19T21:24:44.229Z,98398.00
2023-05-19T21:27:19.731Z,98390.00
2023-05-19T21:29:57.506Z,98386.00
2023-05-19T21:32:37.361Z,98383.00
2023-05-19T21:35:14.190Z,98375.00
2023-05-19T21:38:03.919Z,98374.00
2023-05-19T21:40:49.289Z,98381.00
2023-05-19T21:43:23.885Z,98381.00
2023-05-19T21:46:04.250Z,98377.00
2023-05-19T21:48:43.505Z,98379.00
2023-05-19T21:51:17.924Z,98373.00
2023-05-19T21:53:58.241Z,98369.00
2023-05-19T21:56:38.772Z,98361.00
2023-05-19T21:59:17.080Z,98357.00
2023-05-19T22:01:54.533Z,98360.00
2023-05-19T22:04:32.799Z,98357.00
2023-05-19T22:07:14.456Z,98362.00
2023-05-19T22:09:49.339Z,98357.00
2023-05-19T22:12:24.448Z,98354.00
2023-05-19T22:15:02.906Z,98351.00
2023-05-19T22:17:37.252Z,98355.00
2023-05-19T22:20:13.731Z,98344.00
2023-05-19T22:22:58.957Z,98344.00
2023-05-19T22:25:35.183Z,98341.00
2023-05-19T22:28:17.641Z,98352.00
2023-05-19T22:30:52.395Z,98350.00
2023-05-19T22:33:29.814Z,98349.00
2023-05-19T22:36:11.204Z,98351.00
2023-05-19T22:38:45.737Z,98349.00
2023-05-19T22:41:26.788Z,98352.00
2023-05-19T22:44:03.916Z,98345.00
2023-05-19T22:46:38.651Z,98342.00
2023-05-19T22:49:13.214Z,98348.00
2023-05-19T22:51:53.307Z,98335.00
2023-05-19T22:54:27.473Z,98336.00
2023-05-19T22:57:06.230Z,98329.00
2023-05-19T22:59:41.339Z,98335.00
2023-05-19T23:02:21.472Z,98335.00
2023-05-19T23:04:55.728Z,98327.00
2023-05-19T23:07:31.894Z,98324.00
2023-05-19T23:10:11.799Z,98327.00
2023-05-19T23:12:48.603Z,98312.00
2023-05-19T23:15:23.738Z,98313.00
2023-05-19T23:17:58.109Z,98314.00
2023-05-19T23:20:34.447Z,98321.00
2023-05-19T23:23:12.890Z,98303.00
2023-05-19T23:25:47.865Z,98303.00
2023-05-19T23:28:22.279Z,98302.00
2023-05-19T23:31:01.878Z,98296.00
2023-05-19T23:33:39.969Z,98293.00
2023-05-19T23:36:17.708Z,98301.00
2023-05-19T23:39:04.312Z,98294.00
2023-05-19T23:41:41.292Z,98296.00
2023-05-19T23:44:15.720Z,98302.00
2023-05-19T23:46:59.763Z,98299.00
2023-05-19T23:49:34.320Z,98294.00
2023-05-19T23:52:09.034Z,98300.00
2023-05-19T23:54:46.675Z,98296.00
2023-05-19T23:57:24.156Z,98290.00
